Latest Coastal Weather Observations for Cape Naturaliste

IDW60701

Issued at 12:12 pm WST Monday 27 April 2015 (issued every 10 minutes, with the page automatically refreshed every 10 minutes)

About coastal observations | Map of coastal stations | Coastal observations for WA | Marine services | Other Formats
Station Details ID: 009519 Name: CAPE NATURALISTE Lat: -33.54 Lon: 115.02 Height: 109.0 m
Data from the previous 72 hours. | See also: Recent months at Cape Naturaliste
Date/Time
WST
Temp

°C
Wind Pressure Rain
since 9am
mm
Weather Cloud Vis
km
Sea
Height
m
Swell
Dir
 
Speed
knots
Gust
knots
hPa Trend Height
m
Period
s
Dir
27/12:00pm 20.9 ENE 12 15 1025.0 - 0.0 - - - - - - -
27/11:30am 20.2 ENE 15 17 1025.3 - 0.0 - - - - - - -
27/11:00am 20.1 ENE 13 18 1025.4 - 0.0 - - - - - - -
27/10:30am 19.1 ENE 14 18 1025.7 - 0.0 - - - - - - -
27/10:00am 18.8 ENE 15 19 1025.8 - 0.0 - - - - - - -
27/09:30am 17.7 E 14 19 1026.0 - 0.0 - - - - - - -
27/09:00am 16.7 E 15 18 1025.9 - 0.0 - - - - - - -
27/08:30am 15.7 E 14 17 1026.0 - 0.0 - - - - - - -
27/08:00am 14.7 E 14 17 1025.8 - 0.0 - - - - - - -
27/07:30am 13.7 ESE 15 18 1025.4 - 0.0 - - - - - - -
27/07:00am 12.9 ESE 15 18 1024.9 - 0.0 - - - - - - -
27/06:30am 12.5 ESE 14 17 1024.9 - 0.0 - - - - - - -
27/06:00am 12.5 ESE 15 18 1024.9 - 0.0 - - - - - - -
27/05:30am 12.1 ESE 15 18 1024.9 - 0.0 - - - - - - -
27/05:00am 14.1 E 17 22 1024.8 - 0.0 - - - - - - -
27/04:30am 14.3 E 17 22 1024.7 - 0.0 - - - - - - -
27/04:00am 14.5 E 17 22 1024.5 - 0.0 - - - - - - -
27/03:30am 14.6 E 18 23 1024.5 - 0.0 - - - - - - -
27/03:00am 14.8 E 18 23 1024.4 - 0.0 - - - - - - -
27/02:30am 14.8 E 19 24 1024.7 - 0.0 - - - - - - -
27/02:00am 15.0 E 19 25 1024.8 - 0.0 - - - - - - -
27/01:30am 15.2 E 19 25 1024.9 - 0.0 - - - - - - -
27/01:00am 15.4 E 21 27 1025.0 - 0.0 - - - - - - -
27/12:30am 15.6 E 19 25 1025.0 - 0.0 - - - - - - -
27/12:00am 16.3 E 19 25 1025.0 - 0.0 - - - - - - -
 
Date/Time
WST
Temp

°C
Wind Pressure Rain
since 9am
mm
Weather Cloud Vis
km
Sea
Height
m
Swell
Dir
 
Speed
knots
Gust
knots
hPa Trend Height
m
Period
s
Dir
26/11:30pm 17.1 ENE 18 25 1024.9 - 0.0 - - - - - - -
26/11:00pm 16.7 E 15 20 1025.1 - 0.0 - - - - - - -
26/10:30pm 14.9 ESE 13 15 1025.2 - 0.0 - - - - - - -
26/10:00pm 15.1 ESE 12 15 1025.2 - 0.0 - - - - - - -
26/09:30pm 15.3 ESE 12 15 1025.2 - 0.0 - - - - - - -
26/09:00pm 15.7 ESE 12 15 1025.1 - 0.0 - - - - - - -
26/08:30pm 15.6 ESE 11 14 1024.9 - 0.0 - - - - - - -
26/08:00pm 15.7 ESE 11 13 1024.7 - 0.0 - - - - - - -
26/07:30pm 16.1 SE 11 14 1024.7 - 0.0 - - - - - - -
26/07:00pm 15.9 SE 10 13 1024.6 - 0.0 - - - - - - -
26/06:30pm 16.0 SE 10 12 1024.5 - 0.0 - - - - - - -
26/06:00pm 16.3 SSE 8 9 1024.4 - 0.0 - - - - - - -
26/05:30pm 17.6 SE 7 10 1024.3 - 0.0 - - - - - - -
26/05:00pm 19.1 ESE 7 10 1024.2 - 0.0 - - - - - - -
26/04:30pm 20.3 E 6 9 1024.3 - 0.0 - - - - - - -
26/04:00pm 20.9 E 6 8 1024.3 - 0.0 - - - - - - -
26/03:30pm 20.8 E 8 10 1024.3 - 0.0 - - - - - - -
26/03:00pm 21.0 E 9 11 1024.3 - 0.0 - - - - - - -
26/02:30pm 21.0 E 9 11 1024.4 - 0.0 - - - - - - -
26/02:00pm 21.0 E 10 12 1024.5 - 0.0 - - - - - - -
26/01:30pm 20.7 E 10 12 1024.8 - 0.0 - - - - - - -
26/01:00pm 20.3 E 10 13 1025.0 - 0.0 - - - - - - -
26/12:30pm 19.7 E 11 14 1025.3 - 0.0 - - - - - - -
26/12:00pm 19.3 ESE 12 16 1025.8 - 0.0 - - - - - - -
26/11:30am 18.8 E 12 18 1026.1 - 0.0 - - - - - - -
26/11:00am 17.8 ESE 12 16 1026.4 - 0.0 - - - - - - -
26/10:30am 17.4 E 14 17 1026.6 - 0.0 - - - - - - -
26/10:00am 16.8 E 14 18 1026.9 - 0.0 - - - - - - -
26/09:30am 16.2 E 14 18 1027.0 - 0.0 - - - - - - -
26/09:00am 15.5 E 14 18 1026.9 - 0.0 - - - - - - -
26/08:30am 14.7 E 14 18 1026.7 - 0.0 - - - - - - -
26/08:00am 12.5 ESE 13 15 1026.7 - 0.0 - - - - - - -
26/07:30am 11.0 ESE 13 16 1026.3 - 0.0 - - - - - - -
26/07:00am 10.1 ESE 13 15 1026.1 - 0.0 - - - - - - -
26/06:30am 10.0 ESE 13 16 1025.9 - 0.0 - - - - - - -
26/06:00am 10.1 ESE 14 16 1025.9 - 0.0 - - - - - - -
26/05:30am 10.0 ESE 13 16 1025.9 - 0.0 - - - - - - -
26/05:00am 10.2 ESE 13 15 1025.8 - 0.0 - - - - - - -
26/04:30am 10.4 ESE 14 17 1025.7 - 0.0 - - - - - - -
26/04:00am 10.8 ESE 14 19 1025.6 - 0.0 - - - - - - -
26/03:30am 10.9 ESE 14 17 1025.6 - 0.0 - - - - - - -
26/03:00am 10.4 ESE 13 17 1025.8 - 0.0 - - - - - - -
26/02:30am 12.4 ESE 16 22 1025.8 - 0.0 - - - - - - -
26/02:00am 13.4 E 19 24 1025.8 - 0.0 - - - - - - -
26/01:30am 13.4 E 17 24 1025.9 - 0.0 - - - - - - -
26/01:00am 13.5 ESE 19 25 1025.8 - 0.0 - - - - - - -
26/12:30am 13.8 ESE 18 25 1025.5 - 0.0 - - - - - - -
26/12:00am 13.2 ESE 19 24 1025.5 - 0.0 - - - - - - -
 
Date/Time
WST
Temp

°C
Wind Pressure Rain
since 9am
mm
Weather Cloud Vis
km
Sea
Height
m
Swell
Dir
 
Speed
knots
Gust
knots
hPa Trend Height
m
Period
s
Dir
25/11:30pm 13.3 ESE 17 23 1025.6 - 0.0 - - - - - - -
25/11:00pm 13.8 ESE 16 21 1025.8 - 0.0 - - - - - - -
25/10:30pm 13.9 ESE 16 20 1025.9 - 0.0 - - - - - - -
25/10:00pm 13.6 ESE 16 20 1026.0 - 0.0 - - - - - - -
25/09:30pm 13.9 ESE 16 21 1026.0 - 0.0 - - - - - - -
25/09:00pm 14.4 ESE 16 22 1025.8 - 0.0 - - - - - - -
25/08:30pm 14.6 ESE 16 22 1025.6 - 0.0 - - - - - - -
25/08:00pm 14.6 ESE 17 23 1025.6 - 0.0 - - - - - - -
25/07:30pm 14.7 ESE 16 23 1025.4 - 0.0 - - - - - - -
25/07:00pm 14.7 SE 15 20 1025.3 - 0.0 - - - - - - -
25/06:30pm 14.8 SE 13 17 1025.2 - 0.0 - - - - - - -
25/06:00pm 15.3 SE 12 16 1025.0 - 0.0 - - - - - - -
25/05:30pm 16.1 SE 12 16 1024.8 - 0.0 - - - - - - -
25/05:00pm 17.1 SE 11 16 1024.7 - 0.0 - - - - - - -
25/04:30pm 17.9 ESE 11 17 1024.6 - 0.0 - - - - - - -
25/04:00pm 18.6 ESE 11 17 1024.8 - 0.0 - - - - - - -
25/03:30pm 18.9 ESE 13 17 1024.9 - 0.0 - - - - - - -
25/03:00pm 19.4 E 10 13 1025.0 - 0.0 - - - - - - -
25/02:30pm 18.6 E 9 13 1025.0 - 0.0 - - - - - - -
25/02:00pm 19.3 E 10 14 1025.1 - 0.0 - - - - - - -
25/01:30pm 19.4 E 11 17 1025.2 - 0.0 - - - - - - -
25/01:00pm 19.5 E 11 17 1025.6 - 0.0 - - - - - - -
25/12:30pm 18.6 ENE 14 18 1026.1 - 0.0 - - - - - - -
25/12:00pm 18.6 ENE 13 17 1026.7 - 0.0 - - - - - - -
25/11:30am 17.8 ENE 13 19 1027.1 - 0.0 - - - - - - -
25/11:00am 15.9 ENE 13 21 1027.4 - 0.0 - - - - - - -
25/10:30am 16.4 ENE 15 21 1027.7 - 0.0 - - - - - - -
25/10:00am 16.2 ENE 17 22 1027.9 - 0.0 - - - - - - -
25/09:30am 15.7 ENE 17 23 1028.2 - 0.0 - - - - - - -
25/09:00am 15.1 E 16 22 1028.2 - 0.0 - - - - - - -
25/08:30am 14.2 E 18 24 1028.2 - 0.0 - - - - - - -
25/08:00am 13.8 E 18 25 1027.9 - 0.0 - - - - - - -
25/07:30am 13.0 E 17 23 1027.4 - 0.0 - - - - - - -
25/07:00am 10.0 ESE 11 16 1027.1 - 0.0 - - - - - - -
25/06:30am 11.0 ESE 14 21 1026.8 - 0.0 - - - - - - -
25/06:01am 11.9 E 15 25 1026.6 - 0.0 - - - - - - -
25/06:00am 11.7 ESE 14 25 1026.6 - 0.0 - - - - - - -
25/05:30am 10.7 ESE 14 20 1026.5 - 0.0 - - - - - - -
25/05:00am 10.6 ESE 16 19 1026.4 - 0.0 - - - - - - -
25/04:30am 10.5 ESE 15 21 1026.3 - 0.0 - - - - - - -
25/04:00am 10.8 ESE 15 21 1026.3 - 0.0 - - - - - - -
25/03:30am 11.5 ESE 15 22 1026.3 - 0.0 - - - - - - -
25/03:00am 12.1 ESE 15 22 1026.3 - 0.0 - - - - - - -
25/02:30am 12.3 ESE 16 21 1026.5 - 0.0 - - - - - - -
25/02:00am 12.4 ESE 16 22 1026.6 - 0.0 - - - - - - -
25/01:30am 12.6 ESE 16 21 1026.5 - 0.0 - - - - - - -
25/01:00am 12.9 ESE 18 25 1026.2 - 0.0 - - - - - - -
25/12:30am 12.7 ESE 16 22 1026.5 - 0.0 - - - - - - -
25/12:00am 12.6 ESE 15 20 1026.8 - 0.0 - - - - - - -
 
Date/Time
WST
Temp

°C
Wind Pressure Rain
since 9am
mm
Weather Cloud Vis
km
Sea
Height
m
Swell
Dir
 
Speed
knots
Gust
knots
hPa Trend Height
m
Period
s
Dir
24/11:30pm 13.7 E 18 24 1027.1 - 0.0 - - - - - - -
24/11:00pm 13.8 ESE 17 23 1027.3 - 0.0 - - - - - - -
24/10:30pm 13.8 ESE 18 28 1027.4 - 0.0 - - - - - - -
24/10:21pm 13.9 ESE 17 28 1027.3 - 0.0 - - - - - - -
24/10:00pm 13.2 ESE 14 20 1027.4 - 0.0 - - - - - - -
24/09:30pm 13.2 ESE 13 19 1027.5 - 0.0 - - - - - - -
24/09:00pm 13.7 ESE 14 19 1027.3 - 0.0 - - - - - - -
24/08:30pm 14.5 ESE 18 28 1027.4 - 0.0 - - - - - - -
24/08:29pm 14.5 ESE 19 29 1027.4 - 0.0 - - - - - - -
24/08:00pm 14.6 ESE 19 26 1027.3 - 0.0 - - - - - - -
24/07:30pm 14.6 ESE 17 29 1027.4 - 0.0 - - - - - - -
24/07:27pm 14.6 ESE 17 29 1027.4 - 0.0 - - - - - - -
24/07:00pm 14.6 ESE 19 25 1027.1 - 0.0 - - - - - - -
24/06:30pm 14.1 SE 14 21 1026.8 - 0.0 - - - - - - -
24/06:00pm 14.1 SE 13 19 1026.9 - 0.0 - - - - - - -
24/05:30pm 14.5 SE 13 19 1026.9 - 0.0 - - - - - - -
24/05:00pm 14.6 ESE 12 18 1027.2 - 0.0 - - - - - - -
24/04:30pm 16.0 ESE 14 21 1027.0 - 0.0 - - - - - - -
24/04:00pm 17.0 ESE 14 19 1027.0 - 0.0 - - - - - - -
24/03:30pm 17.4 ESE 15 22 1027.0 - 0.0 - - - - - - -
24/03:07pm 16.9 ESE 15 25 1027.0 - 0.0 - - - - - - -
24/03:00pm 16.9 ESE 16 25 1026.9 - 0.0 - - - - - - -
24/02:30pm 17.9 ESE 14 19 1027.2 - 0.0 - - - - - - -
24/02:00pm 17.8 ESE 14 20 1027.2 - 0.0 - - - - - - -
24/01:30pm 16.3 E 14 19 1027.5 - 0.0 - - - - - - -
24/01:00pm 15.7 ESE 15 21 1027.9 - 0.0 - - - - - - -
24/12:30pm 15.8 E 14 20 1028.5 - 0.0 - - - - - - -

Other Formats:

Comma delimited format used in spreadsheet applications
http://www.bom.gov.au/fwo/IDW60701/IDW60701.94600.axf

JavaScript Object Notation format (JSON) in row-major order
http://www.bom.gov.au/fwo/IDW60701/IDW60701.94600.json